Time;durP1;ratioP1;P1;durP2;ratioP2;P2;SDS_P1;SDS_P2;PMS_P1;PMS_P2;Temp;Humidity;BMP_temperature;BMP_pressure;BME280_temperature;BME280_humidity;BME280_pressure;Samples;Min_cycle;Max_cycle;Signal;HPM_P1;HPM_P2
2022/01/27 00:03:13;;;;;;;9.80;4.90;;;2.60;99.90;;;2.61;81.23;102146.13;5010020;28;20378;-64
2022/01/27 00:05:41;;;;;;;7.18;4.45;;;2.60;99.90;;;2.58;80.92;102143.59;4995284;28;20223;-65
2022/01/27 00:08:13;;;;;;;10.05;4.28;;;2.60;99.90;;;2.66;80.49;102148.63;4993740;28;20590;-63
2022/01/27 00:13:19;;;;;;;10.88;5.13;;;2.70;99.90;;;2.62;80.57;102140.09;5011646;28;20313;-65
2022/01/27 00:15:49;;;;;;;7.50;3.90;;;2.60;99.90;;;2.62;80.75;102137.50;4994011;28;20663;-64
2022/01/27 00:18:17;;;;;;;11.25;4.07;;;2.60;99.90;;;2.62;81.13;102128.94;5010748;28;20228;-65
2022/01/27 00:20:47;;;;;;;9.55;4.63;;;2.60;99.90;;;2.67;80.83;102121.97;5009689;28;20202;-64
2022/01/27 00:23:15;;;;;;;7.70;4.55;;;2.70;99.90;;;2.68;81.32;102132.28;5005992;28;20658;-65
2022/01/27 00:25:43;;;;;;;7.50;4.75;;;2.60;99.90;;;2.68;81.18;102127.13;4972894;28;20204;-65
2022/01/27 00:28:10;;;;;;;9.25;4.15;;;2.60;99.90;;;2.72;80.94;102136.50;4986691;28;20205;-65
2022/01/27 00:30:39;;;;;;;9.10;4.45;;;2.70;99.90;;;2.72;81.33;102131.34;5011086;28;20575;-64
2022/01/27 00:33:07;;;;;;;13.45;5.53;;;2.70;99.90;;;2.74;80.88;102121.88;4993469;28;20219;-64
2022/01/27 00:35:35;;;;;;;8.48;4.60;;;2.70;99.90;;;2.73;80.80;102127.88;4997897;28;20256;-65
2022/01/27 00:38:02;;;;;;;5.35;3.78;;;2.70;99.90;;;2.73;80.98;102119.28;4961637;28;20277;-63
2022/01/27 00:40:29;;;;;;;7.53;3.92;;;2.70;99.90;;;2.73;80.74;102122.72;4977747;28;20320;-65
2022/01/27 00:42:57;;;;;;;10.00;4.40;;;2.70;99.90;;;2.77;80.76;102128.72;5001034;28;20698;-66
2022/01/27 00:45:25;;;;;;;11.90;4.50;;;2.80;99.90;;;2.70;80.70;102125.38;5013196;28;20207;-64
2022/01/27 00:47:52;;;;;;;7.00;4.43;;;2.70;99.90;;;2.73;80.79;102122.72;4996020;28;20285;-64
2022/01/27 00:50:19;;;;;;;10.88;4.50;;;2.70;99.90;;;2.69;80.81;102126.25;5014244;28;20674;-64
2022/01/27 00:52:53;;;;;;;10.90;5.18;;;2.70;99.90;;;2.78;80.63;102123.53;5044330;22;20517;-70
2022/01/27 00:55:23;;;;;;;8.18;4.10;;;2.80;99.90;;;2.76;80.56;102119.25;5047529;28;20205;-67
2022/01/27 01:00:32;;;;;;;13.88;6.40;;;2.80;99.90;;;2.71;80.86;102116.75;5045016;28;20200;-70
2022/01/27 01:11:33;;;;;;;8.32;4.20;;;2.70;99.90;;;2.75;80.44;102092.63;5052176;28;20209;-67
2022/01/27 01:19:24;;;;;;;9.43;4.88;;;2.70;99.90;;;2.72;80.70;102084.97;5033624;28;20304;-66
2022/01/27 01:35:26;;;;;;;8.20;4.57;;;2.70;99.90;;;2.69;81.46;102074.69;5046826;28;20683;-68
2022/01/27 01:37:55;;;;;;;9.35;4.72;;;2.70;99.90;;;2.73;81.48;102075.47;5031161;28;20448;-67
2022/01/27 01:40:22;;;;;;;12.52;5.68;;;2.70;99.90;;;2.69;81.34;102077.28;5031463;28;20198;-67
2022/01/27 01:42:49;;;;;;;5.45;3.40;;;2.70;99.90;;;2.72;81.10;102079.81;5049763;28;20220;-67
2022/01/27 01:45:20;;;;;;;11.20;4.15;;;2.70;99.90;;;2.65;81.86;102077.34;5051471;28;20292;-67
2022/01/27 01:47:51;;;;;;;8.15;3.45;;;2.70;99.90;;;2.66;81.37;102086.78;5050854;28;20679;-67
2022/01/27 01:50:18;;;;;;;8.73;4.50;;;2.70;99.90;;;2.64;81.86;102091.94;5052058;28;20668;-67
2022/01/27 01:52:45;;;;;;;5.53;3.55;;;2.70;99.90;;;2.70;80.79;102089.28;5034612;28;20728;-67
2022/01/27 01:55:13;;;;;;;7.63;4.72;;;2.70;99.90;;;2.71;81.49;102090.13;5032304;28;20564;-68
2022/01/27 01:57:40;;;;;;;10.60;4.95;;;2.70;99.90;;;2.66;81.42;102087.63;5062196;28;20592;-67
2022/01/27 02:00:09;;;;;;;7.35;3.78;;;2.70;99.90;;;2.66;81.26;102103.06;5047858;28;20205;-69
2022/01/27 02:02:36;;;;;;;7.65;4.00;;;2.60;99.90;;;2.67;81.32;102098.78;5032539;28;20230;-69
2022/01/27 02:05:05;;;;;;;6.93;3.70;;;2.60;99.90;;;2.68;81.13;102101.34;5031806;28;20237;-69
2022/01/27 02:10:31;;;;;;;3.55;2.95;;;2.70;99.90;;;2.74;80.75;102101.25;5031718;28;20588;-68
2022/01/27 02:18:30;;;;;;;9.07;5.07;;;2.60;99.90;;;2.62;81.31;102101.44;5050767;28;20228;-67
2022/01/27 02:20:57;;;;;;;8.98;4.53;;;2.60;99.90;;;2.65;81.27;102096.25;5050659;28;20665;-66
2022/01/27 02:23:24;;;;;;;9.60;5.05;;;2.70;99.90;;;2.66;80.71;102094.53;5050585;28;20232;-67
2022/01/27 02:25:50;;;;;;;12.55;4.72;;;2.70;99.90;;;2.69;80.68;102092.72;5050446;28;20581;-68
2022/01/27 02:28:17;;;;;;;12.48;5.63;;;2.70;99.90;;;2.67;81.15;102104.78;5051277;28;20669;-67
2022/01/27 02:30:46;;;;;;;7.40;3.65;;;2.70;99.90;;;2.63;80.96;102098.00;5050348;28;20676;-67
2022/01/27 02:33:13;;;;;;;3.55;3.10;;;2.70;99.90;;;2.54;81.33;102082.66;5063147;28;20213;-67
2022/01/27 02:35:40;;;;;;;3.05;2.67;;;2.70;99.90;;;2.56;80.66;102080.06;5063307;28;20202;-67
2022/01/27 02:38:07;;;;;;;6.75;1.63;;;2.60;99.90;;;2.54;80.84;102063.78;5055402;28;20220;-67
2022/01/27 02:40:53;;;;;;;5.57;3.35;;;2.60;99.90;;;2.57;81.06;102062.03;5051984;28;20292;-70
2022/01/27 02:43:20;;;;;;;4.03;2.95;;;2.60;99.90;;;2.63;80.79;102074.81;5031871;28;20222;-67
2022/01/27 02:46:04;;;;;;;5.53;3.55;;;2.60;99.90;;;2.61;80.59;102063.66;5030889;28;20529;-70
2022/01/27 02:48:31;;;;;;;2.55;2.25;;;2.70;99.90;;;2.60;80.97;102061.94;5030719;28;20210;-67
2022/01/27 02:50:57;;;;;;;6.30;2.58;;;2.60;99.90;;;2.54;81.79;102056.91;5031197;28;20308;-67
2022/01/27 02:53:24;;;;;;;8.40;3.28;;;2.60;99.90;;;2.54;80.93;102051.75;5047051;28;20247;-67
2022/01/27 02:55:51;;;;;;;5.25;3.10;;;2.70;99.90;;;2.46;81.29;102035.56;5045566;28;20232;-68
2022/01/27 02:58:18;;;;;;;6.95;4.10;;;2.50;99.90;;;2.40;81.52;102039.97;5050782;28;20248;-67
2022/01/27 03:00:45;;;;;;;6.20;3.35;;;2.50;99.90;;;2.46;81.58;102037.28;5034866;28;20194;-67
2022/01/27 03:03:12;;;;;;;5.00;3.55;;;2.40;99.90;;;2.46;81.88;102035.56;5030621;28;20238;-68
2022/01/27 03:05:39;;;;;;;6.80;4.30;;;2.50;99.90;;;2.51;81.91;102027.78;5030253;28;20198;-68
2022/01/27 03:08:06;;;;;;;5.65;3.10;;;2.50;99.90;;;2.53;80.95;102026.03;5030622;28;20662;-69
2022/01/27 03:10:44;;;;;;;3.30;1.65;;;2.50;99.90;;;2.44;81.49;102019.28;5039567;28;20204;-67
2022/01/27 03:13:11;;;;;;;16.00;6.13;;;2.50;99.90;;;2.45;81.76;102008.09;5049593;28;20231;-70
2022/01/27 03:15:37;;;;;;;17.08;5.05;;;2.50;99.90;;;2.50;80.83;102014.03;5048650;28;20209;-68
2022/01/27 03:18:04;;;;;;;5.40;3.85;;;2.50;99.90;;;2.54;80.72;102005.38;5050271;28;21418;-66
2022/01/27 03:20:33;;;;;;;3.00;2.20;;;2.60;99.90;;;2.55;81.42;102021.69;5047016;28;20201;-67
2022/01/27 03:23:01;;;;;;;9.98;5.20;;;2.60;99.90;;;2.52;80.97;102022.59;5047396;28;20213;-68
2022/01/27 03:25:28;;;;;;;8.43;3.60;;;2.60;99.90;;;2.45;81.22;102025.31;5045332;28;20289;-67
2022/01/27 03:27:55;;;;;;;6.35;3.70;;;2.60;99.90;;;2.41;81.92;102016.75;5028066;28;20205;-67
2022/01/27 03:30:22;;;;;;;9.93;5.00;;;2.50;99.90;;;2.44;81.72;102014.13;5029982;28;20206;-70
2022/01/27 03:32:49;;;;;;;12.30;5.45;;;2.50;99.90;;;2.43;81.68;102011.59;5030075;28;20226;-68
2022/01/27 03:35:16;;;;;;;12.23;6.07;;;2.50;99.90;;;2.53;81.84;102013.13;5030198;28;20481;-67
2022/01/27 03:37:43;;;;;;;11.63;5.75;;;2.50;99.90;;;2.41;82.33;102016.75;5041535;28;20213;-70
2022/01/27 03:40:10;;;;;;;18.95;7.43;;;2.50;99.90;;;2.42;81.74;102010.75;5049542;28;20197;-70
2022/01/27 03:42:44;;;;;;;11.63;5.43;;;2.50;99.90;;;2.38;82.83;102011.66;5050669;28;20225;-69
2022/01/27 03:45:12;;;;;;;6.72;4.43;;;2.40;99.90;;;2.41;81.76;102011.59;5049334;28;20284;-69
2022/01/27 03:47:39;;;;;;;3.97;2.92;;;2.50;99.90;;;2.49;81.96;102011.50;5049568;28;20201;-69
2022/01/27 03:50:07;;;;;;;8.52;5.10;;;2.50;99.90;;;2.44;82.02;102009.00;5050176;28;20198;-69
2022/01/27 03:52:33;;;;;;;8.63;4.88;;;2.50;99.90;;;2.45;81.15;102002.94;5048791;28;20720;-70
2022/01/27 03:55:00;;;;;;;10.85;6.00;;;2.50;99.90;;;2.48;81.73;102008.06;5049901;28;20209;-70
2022/01/27 03:57:27;;;;;;;11.73;5.90;;;2.50;99.90;;;2.45;81.48;102008.09;5050736;28;20250;-67
2022/01/27 03:59:54;;;;;;;5.85;3.67;;;2.50;99.90;;;2.44;81.58;102003.84;5062500;28;20263;-70
2022/01/27 04:02:21;;;;;;;6.10;3.05;;;2.50;99.90;;;2.58;80.39;102006.19;5070170;28;20307;-68
2022/01/27 04:04:49;;;;;;;7.72;3.90;;;2.60;99.90;;;2.48;80.98;102009.78;5040203;28;20216;-68
2022/01/27 04:07:16;;;;;;;11.30;4.90;;;2.50;99.90;;;2.55;80.92;102011.38;5029981;28;20213;-67
2022/01/27 04:09:43;;;;;;;15.48;5.45;;;2.60;99.90;;;2.54;80.45;102010.53;5044347;28;20228;-69
2022/01/27 04:12:10;;;;;;;6.10;4.22;;;2.60;99.90;;;2.57;81.04;102009.63;5052917;28;20722;-67
2022/01/27 04:14:37;;;;;;;10.23;5.45;;;2.60;99.90;;;2.53;81.03;101989.94;5053296;28;20571;-67
2022/01/27 04:17:04;;;;;;;11.75;4.63;;;2.60;99.90;;;2.49;80.82;101996.91;5052428;28;20215;-67
2022/01/27 04:19:31;;;;;;;8.75;5.05;;;2.50;99.90;;;2.46;81.26;101986.63;5052976;28;20302;-66
2022/01/27 04:21:58;;;;;;;10.80;5.90;;;2.50;99.90;;;2.42;81.80;101991.84;5053559;28;20213;-67
2022/01/27 04:24:25;;;;;;;9.93;4.57;;;2.50;99.90;;;2.43;81.20;101996.16;5053644;28;20296;-67
2022/01/27 04:27:00;;;;;;;10.30;5.10;;;2.50;99.90;;;2.40;81.72;102002.19;5052885;28;20661;-67
2022/01/27 04:29:27;;;;;;;7.20;4.05;;;2.50;99.90;;;2.38;81.42;102003.09;5053133;28;20205;-67
2022/01/27 04:31:55;;;;;;;8.00;4.32;;;2.40;99.90;;;2.37;81.68;101991.94;5053397;28;20235;-67
2022/01/27 04:34:23;;;;;;;5.35;3.50;;;2.40;99.90;;;2.43;80.91;101998.72;5053348;28;20240;-68
2022/01/27 04:36:50;;;;;;;5.38;3.33;;;2.50;99.90;;;2.41;81.40;101996.16;5048595;28;20213;-67
2022/01/27 04:39:42;;;;;;;9.60;3.95;;;2.50;99.90;;;2.23;82.45;101991.31;5058562;28;20231;-68
2022/01/27 04:42:14;;;;;;;10.23;4.03;;;2.30;99.90;;;2.18;82.20;101987.94;5047251;28;20214;-67
2022/01/27 04:47:15;;;;;;;7.50;3.63;;;2.30;99.90;;;2.18;82.57;101990.53;5045379;28;20624;-67
2022/01/27 04:49:42;;;;;;;5.93;3.55;;;2.20;99.90;;;2.19;82.26;102005.13;5053057;28;20225;-68
2022/01/27 04:52:10;;;;;;;8.60;3.50;;;2.20;99.90;;;2.21;82.50;102011.09;5039857;28;20243;-67
2022/01/27 04:54:55;;;;;;;8.35;4.32;;;2.20;99.90;;;2.23;82.87;102010.19;5053264;28;20312;-67
2022/01/27 04:57:22;;;;;;;13.23;5.88;;;2.20;99.90;;;2.25;82.49;102012.75;5057826;28;20751;-68
2022/01/27 04:59:49;;;;;;;6.55;3.83;;;2.30;99.90;;;2.23;82.38;102005.06;5048467;28;20225;-67
2022/01/27 05:02:26;;;;;;;1.75;1.30;;;2.30;99.90;;;2.25;82.14;102007.59;5037942;28;20229;-69
2022/01/27 05:04:53;;;;;;;8.00;4.10;;;2.30;99.90;;;2.30;82.15;102013.50;5034313;28;20293;-69
2022/01/27 05:07:40;;;;;;;4.68;2.65;;;2.30;99.90;;;2.27;82.00;102014.41;5034627;28;20206;-69
2022/01/27 05:10:12;;;;;;;3.88;3.10;;;2.30;99.90;;;2.10;82.58;102018.13;5033767;28;20217;-69
2022/01/27 05:12:49;;;;;;;5.07;3.97;;;2.20;99.90;;;2.08;82.57;102025.88;5036403;28;20217;-69
2022/01/27 05:15:17;;;;;;;1.48;0.95;;;2.10;99.90;;;2.09;82.64;102024.13;5048822;28;20197;-69
2022/01/27 05:17:45;;;;;;;4.72;2.17;;;2.10;99.90;;;2.08;82.43;102022.44;5048721;28;20285;-69
2022/01/27 05:20:12;;;;;;;1.15;0.70;;;2.10;99.90;;;1.87;82.82;102021.06;5032366;28;20225;-69
2022/01/27 05:22:38;;;;;;;3.70;2.42;;;2.00;99.90;;;1.83;83.70;102006.50;5047480;28;20755;-70
2022/01/27 05:25:06;;;;;;;2.38;1.08;;;1.90;99.90;;;1.70;84.40;102002.41;5045925;28;20197;-67
2022/01/27 05:27:32;;;;;;;5.80;2.92;;;1.80;99.90;;;1.76;84.03;101986.03;5052421;28;20209;-70
2022/01/27 05:30:01;;;;;;;9.60;3.63;;;1.80;99.90;;;1.69;84.95;101997.28;5045519;28;20202;-68
2022/01/27 05:32:28;;;;;;;5.00;3.00;;;1.70;99.90;;;1.65;84.85;102004.19;5047929;28;20226;-68
2022/01/27 05:34:54;;;;;;;3.00;1.75;;;1.70;99.90;;;1.67;84.98;102006.75;5064167;28;20198;-68
2022/01/27 05:37:21;;;;;;;1.20;1.17;;;1.70;99.90;;;1.67;84.93;102006.75;5033245;28;20653;-68
2022/01/27 05:39:48;;;;;;;1.25;1.15;;;1.70;99.90;;;1.67;85.14;102001.59;5033466;28;20741;-68
2022/01/27 05:42:15;;;;;;;1.15;1.05;;;1.70;99.90;;;1.63;85.41;102000.78;5051822;28;20647;-69
2022/01/27 05:44:42;;;;;;;1.88;1.23;;;1.70;99.90;;;1.50;86.11;102002.69;5056095;28;20223;-69
2022/01/27 05:47:09;;;;;;;0.95;0.82;;;1.60;99.90;;;1.53;86.45;102002.63;5067718;28;20201;-68
2022/01/27 05:49:36;;;;;;;8.30;1.33;;;1.60;99.90;;;1.47;86.47;101991.56;5056552;28;20208;-68
2022/01/27 05:52:03;;;;;;;5.50;3.17;;;1.50;99.90;;;1.62;86.15;101996.50;5052218;28;20217;-68
2022/01/27 05:54:31;;;;;;;1.13;1.13;;;1.60;99.90;;;1.62;85.99;101987.97;5041313;28;20202;-69
2022/01/27 05:56:58;;;;;;;8.07;3.75;;;1.70;99.90;;;1.55;86.01;101988.03;5032350;28;20207;-68
2022/01/27 05:59:25;;;;;;;6.35;3.03;;;1.70;99.90;;;1.58;85.91;101988.00;5047258;28;20224;-68
2022/01/27 06:01:52;;;;;;;5.60;3.10;;;1.70;99.90;;;1.68;85.31;102000.75;5064455;28;20201;-69
2022/01/27 06:04:19;;;;;;;12.52;5.35;;;1.70;99.90;;;1.74;85.84;101998.06;5072239;28;20196;-69
2022/01/27 06:06:46;;;;;;;7.47;3.85;;;1.70;99.90;;;1.78;85.95;101999.72;5047582;28;20224;-69
2022/01/27 06:09:13;;;;;;;9.80;4.85;;;1.80;99.90;;;1.90;85.23;102000.41;5031675;28;20715;-69
2022/01/27 06:11:39;;;;;;;9.77;4.47;;;1.90;99.90;;;1.94;84.63;102003.81;5031634;28;20410;-68
2022/01/27 06:14:06;;;;;;;6.78;3.78;;;2.00;99.90;;;1.91;84.24;101991.81;5031139;28;20697;-68
2022/01/27 06:16:34;;;;;;;5.97;2.95;;;2.00;99.90;;;2.00;83.97;101998.56;5036993;28;20618;-69
2022/01/27 06:19:02;;;;;;;8.77;3.47;;;2.00;99.90;;;1.86;84.33;101982.44;5051362;28;20260;-69
2022/01/27 06:21:30;;;;;;;4.35;3.08;;;1.90;99.90;;;1.90;84.82;101982.38;5048484;28;20202;-68
2022/01/27 06:23:57;;;;;;;7.30;4.68;;;1.90;99.90;;;1.87;84.44;101984.16;5046525;28;20218;-68
2022/01/27 06:26:24;;;;;;;4.05;3.05;;;2.00;99.90;;;1.87;84.33;101981.59;5032026;28;20205;-70
2022/01/27 06:28:51;;;;;;;4.47;1.98;;;1.90;99.90;;;1.90;84.88;101989.25;5051504;28;20201;-69
2022/01/27 06:31:18;;;;;;;6.60;3.55;;;1.90;99.90;;;1.97;84.55;101993.44;5050246;28;20216;-69
2022/01/27 06:33:45;;;;;;;6.80;4.25;;;2.00;99.90;;;1.86;85.34;101987.59;5051110;28;20233;-68
2022/01/27 06:36:12;;;;;;;11.40;5.10;;;1.90;99.90;;;2.02;84.19;101996.81;5043056;28;20206;-66
2022/01/27 06:38:38;;;;;;;8.35;4.30;;;2.10;99.90;;;1.97;84.32;102007.16;5054518;28;20205;-69
2022/01/27 06:41:05;;;;;;;3.30;2.13;;;2.00;99.90;;;1.94;84.34;102007.19;5069688;28;20291;-69
2022/01/27 06:43:32;;;;;;;3.70;1.40;;;2.10;99.90;;;1.85;84.91;102002.22;5034228;28;20218;-68
2022/01/27 06:45:59;;;;;;;1.85;0.75;;;2.00;99.90;;;1.92;84.80;101993.50;5030892;28;20260;-68
2022/01/27 06:48:26;;;;;;;6.47;2.88;;;2.00;99.90;;;1.93;84.93;101994.34;5030468;28;20194;-68
2022/01/27 06:50:55;;;;;;;4.97;3.28;;;2.00;99.90;;;1.95;84.47;101996.03;5031369;28;20670;-69
2022/01/27 06:53:23;;;;;;;2.75;1.58;;;2.00;99.90;;;1.81;85.29;101992.81;5068458;22;20495;-62
2022/01/27 06:55:50;;;;;;;2.90;2.20;;;1.90;99.90;;;1.95;85.27;101993.47;5067583;28;20195;-63
2022/01/27 06:58:17;;;;;;;0.95;0.95;;;2.00;99.90;;;1.86;85.46;101988.44;5071115;28;20207;-64
2022/01/27 07:00:44;;;;;;;1.40;1.30;;;1.90;99.90;;;1.85;85.26;101976.47;5070065;28;20217;-63
2022/01/27 07:03:11;;;;;;;3.22;1.85;;;1.90;99.90;;;1.86;86.03;101977.28;5059401;28;20574;-63
2022/01/27 07:05:39;;;;;;;1.52;1.10;;;1.90;99.90;;;1.76;85.52;101975.75;5048769;28;20231;-63
2022/01/27 07:08:06;;;;;;;2.42;1.85;;;1.90;99.90;;;1.79;85.81;101980.84;5050156;28;20649;-63
2022/01/27 07:10:36;;;;;;;0.82;0.82;;;1.90;99.90;;;1.84;85.29;101986.78;5042742;28;20471;-64
2022/01/27 07:13:03;;;;;;;3.95;1.05;;;1.80;99.90;;;1.84;85.36;101984.19;5053566;28;20304;-64
2022/01/27 07:15:30;;;;;;;1.00;0.55;;;1.90;99.90;;;1.62;86.38;101975.91;5058667;28;20296;-63
2022/01/27 07:17:57;;;;;;;1.40;0.73;;;1.80;99.90;;;1.73;86.13;101979.19;5068341;28;20234;-65
2022/01/27 07:20:24;;;;;;;0.50;0.50;;;1.80;99.90;;;1.66;86.29;101974.19;5046289;28;20229;-64
2022/01/27 07:22:51;;;;;;;0.70;0.70;;;1.70;99.90;;;1.61;86.06;101973.38;5047592;28;20238;-64
2022/01/27 07:25:18;;;;;;;3.90;1.70;;;1.70;99.90;;;1.60;86.31;101969.94;5049724;28;20231;-64
2022/01/27 07:27:45;;;;;;;0.30;0.30;;;1.70;99.90;;;1.37;87.39;101975.41;5029555;28;20198;-63
2022/01/27 07:30:12;;;;;;;0.52;0.52;;;1.50;99.90;;;1.49;87.17;101969.28;5051062;28;20284;-65
2022/01/27 07:32:39;;;;;;;5.20;1.80;;;1.50;99.90;;;1.36;87.75;101965.16;5030293;28;20602;-63
2022/01/27 07:35:07;;;;;;;4.82;1.65;;;1.50;99.90;;;1.33;88.16;101960.91;5048329;28;20302;-64
2022/01/27 07:37:33;;;;;;;3.28;1.00;;;1.50;99.90;;;1.51;87.55;101963.22;5065459;28;20205;-64
2022/01/27 07:40:00;;;;;;;4.95;2.72;;;1.50;99.90;;;1.53;87.15;101964.03;5049726;28;20576;-64
2022/01/27 07:42:27;;;;;;;0.85;0.57;;;1.60;99.90;;;1.44;87.79;101955.63;5048823;28;20237;-64
2022/01/27 07:44:54;;;;;;;1.35;1.25;;;1.60;99.90;;;1.60;87.84;101953.69;5048875;28;20197;-63
2022/01/27 07:47:21;;;;;;;1.02;0.75;;;1.60;99.90;;;1.55;87.65;101951.19;5050060;28;20312;-64
2022/01/27 07:49:48;;;;;;;5.55;2.22;;;1.60;99.90;;;1.52;87.84;101954.63;5050214;28;20224;-65
2022/01/27 07:52:18;;;;;;;1.88;1.73;;;1.60;99.90;;;1.33;88.80;101939.47;5050070;28;20209;-63
2022/01/27 07:54:45;;;;;;;4.20;2.33;;;1.50;99.90;;;1.32;89.01;101936.03;5047927;28;20197;-63
2022/01/27 07:57:12;;;;;;;0.95;0.95;;;1.40;99.90;;;1.25;89.80;101934.44;5048758;28;20660;-63
2022/01/27 07:59:39;;;;;;;1.65;1.55;;;1.40;99.90;;;1.35;89.64;101928.31;5047783;28;20220;-63
2022/01/27 08:02:07;;;;;;;2.42;1.35;;;1.40;99.90;;;1.44;89.06;101922.19;5032553;28;20280;-64
2022/01/27 08:04:34;;;;;;;3.63;2.00;;;1.50;99.90;;;1.27;89.47;101919.00;5047672;28;20197;-66
2022/01/27 08:07:02;;;;;;;2.72;1.27;;;1.50;99.90;;;1.32;90.29;101923.19;5049153;28;20205;-63
2022/01/27 08:09:29;;;;;;;2.15;1.83;;;1.40;99.90;;;1.32;90.24;101918.03;5031930;28;20691;-63
2022/01/27 08:11:56;;;;;;;3.95;2.42;;;1.40;99.90;;;1.23;90.63;101912.19;5048708;28;20772;-64
2022/01/27 08:14:23;;;;;;;2.10;1.30;;;1.40;99.90;;;1.12;91.63;101914.03;5047884;28;20201;-64
2022/01/27 08:16:50;;;;;;;5.88;2.67;;;1.30;99.90;;;1.01;92.42;101911.59;5047784;28;20197;-63
2022/01/27 08:19:17;;;;;;;1.52;1.45;;;1.20;99.90;;;1.07;92.94;101906.38;5045287;28;20225;-64
2022/01/27 08:21:44;;;;;;;3.80;2.25;;;1.20;99.90;;;0.93;93.87;101903.16;5049909;28;20204;-64
2022/01/27 08:24:11;;;;;;;5.50;2.35;;;1.10;99.90;;;0.90;94.48;101898.03;5049631;28;20213;-63
2022/01/27 08:26:41;;;;;;;7.57;3.60;;;1.00;99.90;;;0.99;94.22;101891.94;5047106;28;20665;-63
2022/01/27 08:31:55;;;;;;;2.38;1.25;;;1.10;99.90;;;1.14;94.32;101895.16;5030020;28;20206;-64
2022/01/27 08:34:36;;;;;;;2.25;1.98;;;1.20;99.90;;;1.12;94.51;101891.78;5048912;28;20200;-63
2022/01/27 08:37:18;;;;;;;1.20;1.08;;;1.20;99.90;;;1.11;94.81;101892.63;5031195;28;20212;-65
2022/01/27 08:39:49;;;;;;;5.43;3.05;;;1.20;99.90;;;1.06;95.02;101902.13;5054454;28;20703;-63
2022/01/27 08:42:16;;;;;;;5.30;3.25;;;1.20;99.90;;;1.08;95.28;101891.81;5046714;28;20275;-63
2022/01/27 08:44:44;;;;;;;9.90;2.58;;;1.20;99.90;;;1.05;95.40;101902.13;5044995;28;20288;-63
2022/01/27 08:47:12;;;;;;;6.72;3.47;;;1.20;99.90;;;0.99;96.27;101897.06;5048000;28;20225;-63
2022/01/27 08:49:39;;;;;;;3.80;2.55;;;1.10;99.90;;;0.99;95.97;101885.09;5046090;28;20658;-63
2022/01/27 08:52:06;;;;;;;6.57;2.58;;;1.10;99.90;;;1.04;95.46;101879.88;5029268;28;20241;-64
2022/01/27 08:54:33;;;;;;;3.10;2.80;;;1.20;99.90;;;1.02;95.62;101887.63;5047574;28;20213;-63
2022/01/27 08:57:00;;;;;;;6.68;3.03;;;1.20;99.90;;;0.93;95.52;101882.59;5052379;28;20208;-63
2022/01/27 08:59:27;;;;;;;2.35;1.60;;;1.10;99.90;;;0.98;95.69;101891.06;5038596;28;20225;-65
2022/01/27 09:01:54;;;;;;;1.55;1.40;;;1.10;99.90;;;1.01;95.41;101887.63;5053296;28;20205;-64
2022/01/27 09:04:21;;;;;;;3.33;2.20;;;1.10;99.90;;;0.99;95.30;101885.09;5049612;28;20217;-62
2022/01/27 09:06:48;;;;;;;2.22;1.77;;;1.10;99.90;;;0.91;96.12;101886.03;5051546;28;20201;-66
2022/01/27 09:09:15;;;;;;;2.38;1.58;;;1.00;99.90;;;0.97;95.68;101893.69;5050052;28;20207;-65
2022/01/27 09:11:46;;;;;;;0.93;0.73;;;1.10;99.90;;;1.00;95.58;101889.34;5053073;28;20495;-65
2022/01/27 09:14:14;;;;;;;7.65;3.15;;;1.10;99.90;;;0.94;95.32;101889.41;5051661;28;20315;-65
2022/01/27 09:16:42;;;;;;;3.13;1.70;;;1.10;99.90;;;1.00;95.22;101884.19;5047943;28;20209;-65
2022/01/27 09:19:15;;;;;;;1.58;1.00;;;1.10;99.90;;;1.14;94.10;101886.59;5043143;28;20208;-65
2022/01/27 09:21:46;;;;;;;5.43;2.00;;;1.20;99.90;;;1.05;93.83;101891.84;5047857;28;20197;-64
2022/01/27 09:24:17;;;;;;;2.45;1.90;;;1.20;99.90;;;1.15;93.44;101896.03;5051671;28;20224;-65
2022/01/27 09:26:59;;;;;;;6.28;3.83;;;1.20;99.90;;;1.10;94.30;101888.38;5050373;28;20205;-65
2022/01/27 09:29:27;;;;;;;1.80;1.67;;;1.20;99.90;;;1.08;93.07;101878.97;5051057;28;20193;-65
2022/01/27 09:31:55;;;;;;;12.32;3.90;;;1.30;99.90;;;1.09;93.84;101889.22;5030901;28;20289;-65
2022/01/27 09:34:22;;;;;;;3.80;2.15;;;1.30;99.90;;;1.02;93.63;101887.63;5050195;28;20468;-64
2022/01/27 09:36:50;;;;;;;8.30;3.35;;;1.20;99.90;;;1.06;93.25;101891.00;5052087;28;20202;-66
2022/01/27 09:39:19;;;;;;;7.75;3.15;;;1.20;99.90;;;1.14;93.02;101895.16;5050175;28;20284;-66
2022/01/27 09:41:50;;;;;;;8.68;3.13;;;1.20;99.90;;;1.25;92.56;101897.59;5049817;28;20202;-65
2022/01/27 09:44:19;;;;;;;8.18;3.75;;;1.30;99.90;;;1.21;92.09;101894.22;5040611;28;20224;-65
2022/01/27 09:46:47;;;;;;;3.35;1.60;;;1.30;99.90;;;1.14;92.39;101905.44;5041929;28;20202;-65
2022/01/27 09:49:17;;;;;;;1.92;1.77;;;1.30;99.90;;;1.07;92.89;101910.66;5046977;28;20290;-64
2022/01/27 09:51:46;;;;;;;0.63;0.50;;;1.20;99.90;;;1.13;92.44;101914.00;5042332;28;20208;-63
2022/01/27 09:54:15;;;;;;;7.63;2.47;;;1.20;99.90;;;1.11;92.07;101908.03;5048343;28;20229;-63
2022/01/27 09:56:43;;;;;;;3.13;1.70;;;1.20;99.90;;;1.20;91.64;101919.94;5030311;28;20297;-62
2022/01/27 09:59:15;;;;;;;0.90;0.88;;;1.30;99.90;;;1.23;91.55;101909.63;5062943;28;20209;-62
2022/01/27 10:02:05;;;;;;;4.20;2.08;;;1.40;99.90;;;1.25;91.66;101908.72;5049946;28;20200;-63
2022/01/27 10:04:57;;;;;;;7.28;3.92;;;1.40;99.90;;;1.39;91.10;101899.09;5044690;28;20618;-65
2022/01/27 10:07:33;;;;;;;4.00;1.95;;;1.50;99.90;;;1.43;90.62;101900.75;5047034;28;20202;-63
2022/01/27 10:10:13;;;;;;;3.80;2.28;;;1.50;99.90;;;1.21;91.60;101899.38;5035960;28;20201;-62
2022/01/27 10:12:49;;;;;;;2.58;2.08;;;1.40;99.90;;;1.43;90.53;101900.75;5051489;28;20231;-66
2022/01/27 10:15:21;;;;;;;1.48;1.38;;;1.50;99.90;;;1.39;90.43;101895.66;5050032;28;20212;-64
2022/01/27 10:18:11;;;;;;;4.65;1.65;;;1.50;99.90;;;1.39;90.28;101898.22;5050011;28;20288;-66
2022/01/27 10:20:48;;;;;;;1.90;1.67;;;1.50;99.90;;;1.50;90.01;101899.78;5048127;28;20291;-66
2022/01/27 10:23:21;;;;;;;6.15;2.78;;;1.60;99.90;;;1.55;89.72;101903.13;5064114;28;20221;-66
2022/01/27 10:25:57;;;;;;;5.07;1.58;;;1.60;99.90;;;1.48;89.94;101880.09;5049295;28;20193;-67
2022/01/27 10:28:33;;;;;;;4.22;2.63;;;1.60;99.90;;;1.47;89.98;101883.53;5037029;28;20288;-65
2022/01/27 10:31:10;;;;;;;6.85;2.95;;;1.60;99.90;;;1.30;91.16;101864.97;5032412;28;20582;-67
2022/01/27 10:33:52;;;;;;;3.05;1.40;;;1.50;99.90;;;1.39;90.42;101873.38;5050424;28;20228;-65
2022/01/27 10:36:27;;;;;;;1.30;0.85;;;1.50;99.90;;;1.33;91.13;101868.31;5050006;28;20205;-64
2022/01/27 10:39:00;;;;;;;3.50;2.58;;;1.50;99.90;;;1.41;90.37;101865.63;5048452;28;20251;-66
2022/01/27 10:41:35;;;;;;;2.78;1.55;;;1.60;99.90;;;1.56;89.59;101857.69;5048319;28;20225;-66
2022/01/27 10:44:15;;;;;;;4.82;2.67;;;1.60;99.90;;;1.54;89.63;101847.44;5047200;28;20719;-65
2022/01/27 10:47:16;;;;;;;0.65;0.65;;;1.70;99.90;;;1.63;89.52;101853.28;5044488;28;20205;-65
2022/01/27 10:49:49;;;;;;;2.33;2.08;;;1.80;99.90;;;1.66;89.39;101854.13;5059423;28;20197;-66
2022/01/27 10:52:30;;;;;;;2.35;1.15;;;1.80;99.90;;;1.73;88.97;101858.25;5049383;28;20205;-66
2022/01/27 10:55:03;;;;;;;0.55;0.40;;;1.80;99.90;;;1.78;88.74;101860.75;5061472;28;20190;-65
2022/01/27 10:57:30;;;;;;;2.60;2.15;;;1.90;99.90;;;1.67;89.13;101857.50;5047928;28;20193;-66
2022/01/27 11:00:24;;;;;;;11.20;3.40;;;1.90;99.90;;;1.72;89.30;101856.59;5048705;28;20221;-65
2022/01/27 11:02:58;;;;;;;3.28;2.30;;;1.90;99.90;;;1.82;88.36;101850.41;5044034;28;20225;-67
2022/01/27 11:05:29;;;;;;;5.85;1.50;;;1.90;99.90;;;1.87;88.12;101834.88;5050348;28;20197;-64
2022/01/27 11:07:58;;;;;;;2.60;1.65;;;2.00;99.90;;;1.90;88.27;101829.66;5047830;28;20630;-65
2022/01/27 11:10:48;;;;;;;4.00;1.98;;;2.00;99.90;;;2.01;87.58;101828.63;5047978;28;20207;-65
2022/01/27 11:13:19;;;;;;;5.43;1.52;;;2.10;99.90;;;1.97;87.04;101826.97;5048776;28;20231;-65
2022/01/27 11:15:46;;;;;;;1.40;1.30;;;2.10;99.90;;;1.99;87.08;101825.22;5049923;28;20201;-64
2022/01/27 11:18:17;;;;;;;4.07;2.28;;;2.10;99.90;;;2.02;87.20;101834.63;5030574;28;20213;-66
2022/01/27 11:20:56;;;;;;;6.53;2.08;;;2.20;99.90;;;2.13;86.95;101827.56;5043986;28;20317;-65
2022/01/27 11:26:13;;;;;;;1.60;1.00;;;2.20;99.90;;;2.07;86.71;101817.34;5027775;28;20267;-64